Time;durP1;ratioP1;P1;durP2;ratioP2;P2;SDS_P1;SDS_P2;PMS_P1;PMS_P2;Temp;Humidity;BMP_temperature;BMP_pressure;BME280_temperature;BME280_humidity;BME280_pressure;Samples;Min_cycle;Max_cycle;Signal;HPM_P1;HPM_P2
2020/12/04 00:02:11;;;;;;;12.70;8.27;;;;;;;6.25;66.86;95759.38;4990291;28;20030;-76
2020/12/04 00:04:38;;;;;;;11.00;7.82;;;;;;;6.08;67.78;95745.59;5013522;28;20109;-77
2020/12/04 00:07:05;;;;;;;9.85;7.53;;;;;;;5.95;68.30;95749.72;5005127;28;20031;-77
2020/12/04 00:09:31;;;;;;;10.52;7.20;;;;;;;5.87;67.93;95745.84;4987702;28;20285;-76
2020/12/04 00:11:56;;;;;;;9.48;6.97;;;;;;;6.01;67.63;95757.19;5004107;28;20030;-76
2020/12/04 00:14:23;;;;;;;8.63;6.68;;;;;;;6.48;66.22;95754.63;4999729;28;20065;-78
2020/12/04 00:16:49;;;;;;;8.82;6.68;;;;;;;6.42;65.81;95748.97;5002624;28;20045;-77
2020/12/04 00:19:16;;;;;;;7.82;6.07;;;;;;;6.57;65.99;95755.88;5019961;28;20053;-77
2020/12/04 00:21:42;;;;;;;7.72;6.07;;;;;;;6.66;65.33;95751.97;4998979;28;20038;-76
2020/12/04 00:24:08;;;;;;;7.00;5.47;;;;;;;5.83;68.41;95752.94;5016614;28;20029;-76
2020/12/04 00:26:37;;;;;;;7.13;5.82;;;;;;;5.94;68.48;95753.25;4982478;28;20030;-76
2020/12/04 00:29:05;;;;;;;6.28;5.13;;;;;;;6.57;66.03;95753.31;4973294;28;20047;-75
2020/12/04 00:31:31;;;;;;;6.25;4.55;;;;;;;6.06;67.19;95759.53;4988196;28;20116;-76
2020/12/04 00:33:58;;;;;;;5.15;4.07;;;;;;;6.65;65.51;95758.09;4986980;28;20397;-76
2020/12/04 00:36:23;;;;;;;4.35;3.83;;;;;;;6.66;65.43;95758.00;4968784;28;20385;-76
2020/12/04 00:38:49;;;;;;;6.15;3.65;;;;;;;6.63;65.35;95752.13;5002941;28;20053;-77
2020/12/04 00:41:14;;;;;;;3.88;3.17;;;;;;;6.46;66.06;95750.47;4980490;28;20034;-77
2020/12/04 00:43:40;;;;;;;3.40;3.10;;;;;;;6.72;65.53;95744.69;4973511;28;20462;-77
2020/12/04 00:46:06;;;;;;;3.90;3.42;;;;;;;6.65;64.98;95745.13;4991594;28;20042;-75
2020/12/04 00:48:31;;;;;;;3.28;2.97;;;;;;;6.10;66.75;95748.91;4989111;28;20057;-77
2020/12/04 00:50:57;;;;;;;3.60;2.90;;;;;;;6.64;66.08;95746.88;5003868;28;20038;-75
2020/12/04 00:53:23;;;;;;;3.15;2.78;;;;;;;6.27;67.09;95742.00;4985732;28;20536;-75
2020/12/04 00:55:49;;;;;;;2.40;2.20;;;;;;;6.50;66.08;95733.81;4974944;28;20370;-76
2020/12/04 00:58:15;;;;;;;7.22;2.88;;;;;;;6.80;64.68;95734.75;4998132;28;20050;-76
2020/12/04 01:00:41;;;;;;;3.97;2.95;;;;;;;6.21;66.96;95734.56;4995469;28;21324;-76
2020/12/04 01:03:08;;;;;;;2.88;2.58;;;;;;;6.54;66.00;95727.56;4989327;28;20125;-77
2020/12/04 01:05:33;;;;;;;3.10;2.40;;;;;;;6.57;65.52;95723.03;4985422;28;20046;-76
2020/12/04 01:07:59;;;;;;;2.10;1.90;;;;;;;6.41;66.24;95718.78;4991149;28;20030;-76
2020/12/04 01:10:25;;;;;;;2.25;2.05;;;;;;;6.65;65.47;95714.00;4972874;28;20508;-76
2020/12/04 01:12:51;;;;;;;2.30;2.10;;;;;;;6.41;66.01;95708.41;4999195;28;20038;-77
2020/12/04 01:15:17;;;;;;;2.83;2.38;;;;;;;6.56;66.10;95699.78;4972962;28;20140;-76
2020/12/04 01:17:42;;;;;;;2.55;2.10;;;;;;;6.26;66.61;95702.31;4987012;28;20045;-77
2020/12/04 01:20:08;;;;;;;2.17;1.80;;;;;;;5.98;67.53;95695.19;4988881;28;20470;-76
2020/12/04 01:22:34;;;;;;;2.13;1.92;;;;;;;5.94;67.30;95691.09;4984491;28;20038;-76
2020/12/04 01:25:00;;;;;;;1.83;1.73;;;;;;;6.26;66.65;95681.56;4987349;28;20037;-76
2020/12/04 01:27:26;;;;;;;1.50;1.40;;;;;;;6.28;67.22;95677.16;4970738;28;20034;-75
2020/12/04 01:29:52;;;;;;;1.60;1.30;;;;;;;5.53;69.13;95675.06;4998589;28;20057;-77
2020/12/04 01:32:17;;;;;;;1.50;1.40;;;;;;;6.32;67.00;95677.81;4986174;28;20042;-77
2020/12/04 01:34:44;;;;;;;1.55;1.35;;;;;;;5.76;68.34;95678.22;5003479;28;20039;-77
2020/12/04 01:37:10;;;;;;;1.45;1.35;;;;;;;6.53;65.99;95684.38;4998662;28;20049;-77
2020/12/04 01:39:35;;;;;;;3.60;1.10;;;;;;;6.78;65.55;95686.44;4986240;28;20128;-76
2020/12/04 01:42:01;;;;;;;1.20;1.10;;;;;;;6.45;66.29;95687.41;4969838;28;20064;-76
2020/12/04 01:44:27;;;;;;;1.30;1.20;;;;;;;6.68;65.85;95682.69;4967132;28;20520;-76
2020/12/04 01:46:54;;;;;;;1.33;1.15;;;;;;;6.39;66.58;95687.75;4999497;28;20038;-76
2020/12/04 01:49:19;;;;;;;1.20;1.10;;;;;;;6.25;67.26;95679.03;4970032;28;20042;-77
2020/12/04 01:51:47;;;;;;;1.33;1.20;;;;;;;6.24;66.38;95688.56;4988772;28;20367;-75
2020/12/04 01:54:15;;;;;;;1.17;1.08;;;;;;;6.56;65.70;95684.25;4985834;28;20041;-77
2020/12/04 01:56:41;;;;;;;1.15;1.05;;;;;;;6.68;65.68;95686.13;4973827;28;20030;-77
2020/12/04 01:59:07;;;;;;;1.25;1.15;;;;;;;6.39;66.57;95686.91;5001528;28;20045;-76
2020/12/04 02:01:38;;;;;;;1.48;1.38;;;;;;;6.27;67.01;95690.19;4985695;28;20057;-77
2020/12/04 02:04:10;;;;;;;1.60;1.50;;;;;;;6.24;66.72;95680.81;4987031;28;20071;-76
2020/12/04 02:06:57;;;;;;;1.40;1.30;;;;;;;6.51;65.95;95668.09;4965289;28;20856;-75
2020/12/04 02:09:37;;;;;;;1.42;1.23;;;;;;;6.21;67.16;95674.97;5001223;28;20026;-76
2020/12/04 02:12:05;;;;;;;1.70;1.60;;;;;;;5.88;68.00;95680.19;4969875;28;20474;-76
2020/12/04 02:14:33;;;;;;;2.17;1.25;;;;;;;6.35;67.02;95680.22;4968165;28;20082;-76
2020/12/04 02:17:04;;;;;;;1.83;1.60;;;;;;;6.63;65.72;95672.59;4997552;28;20144;-76
2020/12/04 02:19:38;;;;;;;2.03;1.50;;;;;;;6.33;66.78;95676.91;4976134;28;20168;-77
2020/12/04 02:22:04;;;;;;;2.72;1.30;;;;;;;6.27;67.22;95675.47;4991269;28;20495;-77
2020/12/04 02:24:30;;;;;;;1.27;1.17;;;;;;;6.20;67.32;95673.28;4981273;28;20026;-75
2020/12/04 02:26:57;;;;;;;1.40;1.30;;;;;;;5.72;68.52;95664.59;4989017;28;20437;-78
2020/12/04 02:29:24;;;;;;;1.65;1.35;;;;;;;6.67;66.12;95676.66;4988677;28;20053;-77
2020/12/04 02:31:50;;;;;;;1.48;1.38;;;;;;;6.38;66.55;95677.47;4997034;28;20034;-77
2020/12/04 02:34:15;;;;;;;1.65;1.30;;;;;;;6.51;66.92;95675.88;4987786;28;20041;-77
2020/12/04 02:36:41;;;;;;;1.48;1.33;;;;;;;6.74;65.93;95675.41;4990602;28;20034;-77
2020/12/04 02:39:07;;;;;;;1.10;0.90;;;;;;;6.75;65.69;95678.84;4998887;28;20085;-77
2020/12/04 02:41:34;;;;;;;1.30;1.20;;;;;;;6.66;65.72;95677.63;4981413;28;20556;-77
2020/12/04 02:44:01;;;;;;;1.48;1.20;;;;;;;6.64;66.26;95674.25;4985147;28;20030;-77
2020/12/04 02:46:27;;;;;;;1.35;1.25;;;;;;;6.26;67.90;95672.94;4982985;28;20045;-75
2020/12/04 02:48:54;;;;;;;1.65;1.30;;;;;;;6.31;67.68;95671.78;4987684;28;20424;-77
2020/12/04 02:51:20;;;;;;;1.25;1.17;;;;;;;6.19;67.20;95664.66;4982109;28;20053;-77
2020/12/04 02:53:46;;;;;;;1.48;1.05;;;;;;;6.29;67.32;95671.03;4974338;28;20474;-75
2020/12/04 02:56:18;;;;;;;1.80;1.40;;;;;;;6.33;67.24;95664.75;4988760;28;20056;-76
2020/12/04 02:58:43;;;;;;;1.40;1.30;;;;;;;6.06;68.55;95661.91;4984132;28;20109;-75
2020/12/04 03:01:09;;;;;;;1.35;1.25;;;;;;;6.36;66.56;95659.41;4986309;28;20077;-75
2020/12/04 03:03:35;;;;;;;1.50;1.40;;;;;;;6.32;67.06;95660.50;4987545;28;20121;-75
2020/12/04 03:06:01;;;;;;;1.98;1.48;;;;;;;6.52;66.45;95655.03;4980832;28;20046;-76
2020/12/04 03:08:28;;;;;;;1.30;1.20;;;;;;;6.45;66.40;95642.50;4986058;28;20031;-76
2020/12/04 03:10:55;;;;;;;1.60;1.33;;;;;;;6.71;65.72;95647.06;4984174;28;20030;-76
2020/12/04 03:13:21;;;;;;;1.30;1.20;;;;;;;6.35;66.16;95641.34;4992646;28;20093;-76
2020/12/04 03:15:47;;;;;;;1.55;1.45;;;;;;;6.72;65.70;95643.53;5004398;28;20039;-78
2020/12/04 03:18:13;;;;;;;1.90;1.30;;;;;;;6.83;65.07;95651.56;4984941;28;20034;-77
2020/12/04 03:20:38;;;;;;;1.50;1.40;;;;;;;6.54;65.91;95653.19;5002905;28;20118;-74
2020/12/04 03:23:04;;;;;;;1.73;1.52;;;;;;;6.14;67.02;95648.53;4982551;28;20472;-75
2020/12/04 03:25:29;;;;;;;1.50;1.40;;;;;;;6.46;65.85;95660.56;5002313;28;20033;-75
2020/12/04 03:28:01;;;;;;;1.88;1.65;;;;;;;6.62;65.93;95657.94;4989149;28;20033;-75
2020/12/04 03:30:27;;;;;;;1.83;1.55;;;;;;;6.48;65.94;95653.53;4992220;28;20034;-75
2020/12/04 03:32:53;;;;;;;1.70;1.52;;;;;;;6.94;64.32;95656.13;4982308;28;20057;-76
2020/12/04 03:35:22;;;;;;;1.50;1.40;;;;;;;6.73;65.12;95653.00;4981661;28;20035;-75
2020/12/04 03:37:48;;;;;;;3.92;1.83;;;;;;;6.89;64.56;95647.78;4968230;28;20450;-76
2020/12/04 03:40:14;;;;;;;2.10;1.88;;;;;;;6.38;65.83;95644.59;4981746;28;20041;-76
2020/12/04 03:42:40;;;;;;;1.90;1.80;;;;;;;6.33;66.92;95644.00;4970253;28;20034;-75
2020/12/04 03:45:06;;;;;;;1.60;1.50;;;;;;;6.44;65.90;95641.66;4997630;28;20378;-77
2020/12/04 03:47:32;;;;;;;1.85;1.75;;;;;;;6.68;65.06;95636.03;4996552;28;20038;-76
2020/12/04 03:49:58;;;;;;;1.70;1.60;;;;;;;6.43;66.28;95633.97;4986221;28;20026;-76
2020/12/04 03:52:24;;;;;;;1.50;1.40;;;;;;;6.06;66.89;95620.47;4994805;28;20045;-75
2020/12/04 03:54:49;;;;;;;1.50;1.40;;;;;;;6.36;66.33;95614.50;4967869;28;20034;-75
2020/12/04 03:57:16;;;;;;;2.00;1.63;;;;;;;6.20;67.07;95613.69;4986965;28;20054;-75
2020/12/04 03:59:42;;;;;;;2.25;2.05;;;;;;;6.25;66.26;95616.84;4982207;28;20049;-76
2020/12/04 04:02:08;;;;;;;2.05;1.83;;;;;;;6.36;66.30;95606.72;4989521;28;20034;-76
2020/12/04 04:04:33;;;;;;;1.70;1.60;;;;;;;6.28;66.28;95617.53;4983380;28;20046;-76
2020/12/04 04:06:59;;;;;;;1.80;1.70;;;;;;;5.70;67.81;95618.09;5001299;28;20034;-74
2020/12/04 04:09:25;;;;;;;3.78;2.00;;;;;;;5.76;67.85;95618.66;4986091;28;20480;-75
2020/12/04 04:11:50;;;;;;;2.22;2.03;;;;;;;6.11;66.55;95615.88;4982275;28;20037;-74
2020/12/04 04:14:17;;;;;;;1.80;1.67;;;;;;;6.09;67.12;95612.50;4990515;28;20543;-76
2020/12/04 04:16:43;;;;;;;2.20;1.60;;;;;;;6.39;65.34;95622.09;4989363;28;20073;-75
2020/12/04 04:19:09;;;;;;;1.60;1.50;;;;;;;6.01;66.56;95613.84;4988341;28;20152;-74
2020/12/04 04:21:39;;;;;;;1.67;1.58;;;;;;;6.49;65.96;95608.53;4988879;28;20038;-76
2020/12/04 04:24:06;;;;;;;4.13;1.83;;;;;;;6.20;66.48;95603.31;4968015;28;20042;-76
2020/12/04 04:26:33;;;;;;;1.70;1.60;;;;;;;6.22;66.31;95599.72;4986371;28;20041;-75
2020/12/04 04:29:00;;;;;;;1.90;1.80;;;;;;;6.02;66.78;95592.22;4988262;28;20121;-75
2020/12/04 04:31:25;;;;;;;2.05;1.90;;;;;;;5.88;67.81;95595.56;4982204;28;20045;-77
2020/12/04 04:33:51;;;;;;;1.90;1.77;;;;;;;6.16;66.55;95596.63;4986207;28;20061;-76
2020/12/04 04:36:17;;;;;;;2.72;1.83;;;;;;;6.54;65.02;95593.56;5005432;28;20041;-76
2020/12/04 04:38:43;;;;;;;1.52;1.35;;;;;;;6.53;64.99;95601.41;4968176;28;20044;-76
2020/12/04 04:41:09;;;;;;;1.88;1.42;;;;;;;6.02;66.05;95600.81;4999476;28;20041;-75
2020/12/04 04:43:34;;;;;;;2.00;1.45;;;;;;;5.82;66.83;95611.41;4991307;28;20058;-78
2020/12/04 04:46:38;;;;;;;2.53;1.50;;;;;;;6.42;65.48;95596.03;4969154;28;20049;-75
2020/12/04 04:49:27;;;;;;;2.33;1.67;;;;;;;6.53;65.27;95596.25;4987453;28;20097;-75
2020/12/04 04:51:56;;;;;;;1.45;1.35;;;;;;;6.22;65.25;95593.72;4952093;28;20046;-76
2020/12/04 04:54:24;;;;;;;1.90;1.80;;;;;;;6.61;64.68;95598.41;4984719;28;20070;-75
2020/12/04 04:56:50;;;;;;;2.42;1.85;;;;;;;6.38;65.42;95595.34;4971606;28;20042;-74
2020/12/04 04:59:19;;;;;;;2.40;1.70;;;;;;;6.32;65.45;95603.47;4974203;28;20042;-76
2020/12/04 05:01:47;;;;;;;1.85;1.65;;;;;;;6.77;64.19;95601.78;4967803;28;20038;-76
2020/12/04 05:04:14;;;;;;;2.50;1.63;;;;;;;6.40;65.10;95597.84;4995258;28;20124;-77
2020/12/04 05:06:39;;;;;;;1.58;1.48;;;;;;;6.62;64.51;95593.13;4984447;28;20076;-74
2020/12/04 05:09:07;;;;;;;1.73;1.42;;;;;;;6.30;65.65;95596.69;4987391;28;20493;-76
2020/12/04 05:11:33;;;;;;;1.20;1.10;;;;;;;6.42;64.37;95598.63;4979698;28;20811;-76
2020/12/04 05:14:16;;;;;;;1.30;1.00;;;;;;;6.06;66.29;95594.56;4952800;28;20419;-77
2020/12/04 05:16:45;;;;;;;1.63;1.20;;;;;;;6.64;63.99;95587.84;4970782;28;20467;-75
2020/12/04 05:19:11;;;;;;;1.13;1.02;;;;;;;6.75;63.85;95591.50;4984903;28;20125;-76
2020/12/04 05:21:38;;;;;;;1.10;1.00;;;;;;;6.44;64.20;95588.97;4966819;28;20080;-76
2020/12/04 05:24:04;;;;;;;1.38;1.00;;;;;;;6.43;64.75;95600.25;4998859;28;20054;-76
2020/12/04 05:26:38;;;;;;;1.13;1.10;;;;;;;6.78;63.33;95599.09;4981325;28;20042;-76
2020/12/04 05:29:05;;;;;;;2.00;1.10;;;;;;;6.65;63.47;95592.13;4973998;28;20481;-76
2020/12/04 05:31:35;;;;;;;1.00;0.90;;;;;;;7.31;62.02;95602.91;4986427;28;20066;-75
2020/12/04 05:34:18;;;;;;;1.10;1.00;;;;;;;6.84;63.27;95614.31;4989031;28;20113;-76
2020/12/04 05:36:45;;;;;;;1.10;1.00;;;;;;;6.78;63.42;95609.47;4999983;28;20062;-75
2020/12/04 05:39:13;;;;;;;2.65;0.90;;;;;;;6.79;63.13;95610.31;4988137;28;20563;-74
2020/12/04 05:41:47;;;;;;;0.70;0.70;;;;;;;6.19;64.90;95606.84;4972367;28;20057;-75
2020/12/04 05:44:14;;;;;;;1.25;0.80;;;;;;;6.73;63.45;95595.94;5000847;28;20486;-76
2020/12/04 05:46:40;;;;;;;1.85;0.77;;;;;;;6.56;63.88;95591.72;4987208;28;20038;-75
2020/12/04 05:49:08;;;;;;;1.52;0.98;;;;;;;6.72;63.84;95590.81;4978279;28;20422;-75
2020/12/04 05:51:39;;;;;;;0.73;0.73;;;;;;;6.44;64.20;95595.00;4970961;28;20034;-75
2020/12/04 05:54:07;;;;;;;1.20;0.98;;;;;;;6.67;63.41;95588.50;4974826;28;20041;-75
2020/12/04 05:56:34;;;;;;;0.75;0.75;;;;;;;6.36;64.10;95584.25;4985587;28;20038;-77
2020/12/04 05:59:06;;;;;;;1.00;0.90;;;;;;;5.78;66.95;95583.16;4982126;28;20034;-76
2020/12/04 06:01:32;;;;;;;0.57;0.57;;;;;;;6.16;65.08;95583.69;4986843;28;20172;-75
2020/12/04 06:03:59;;;;;;;0.80;0.80;;;;;;;6.05;65.62;95579.09;4983284;28;20476;-75
2020/12/04 06:06:32;;;;;;;0.90;0.90;;;;;;;6.07;66.11;95565.16;5000775;28;20065;-75
2020/12/04 06:09:06;;;;;;;0.90;0.90;;;;;;;5.65;66.66;95562.28;4980548;28;20113;-77
2020/12/04 06:11:38;;;;;;;1.35;0.80;;;;;;;5.80;66.65;95560.63;4986485;28;20081;-75
2020/12/04 06:14:20;;;;;;;;;;;;;;;5.83;66.28;95575.97;4985375;28;20068;-74
2020/12/04 06:17:10;;;;;;;1.23;0.90;;;;;;;6.03;65.88;95574.00;4985789;28;20028;-75
2020/12/04 06:19:38;;;;;;;0.98;0.88;;;;;;;6.41;64.59;95568.44;4979685;28;20104;-75
2020/12/04 06:22:06;;;;;;;0.85;0.82;;;;;;;6.35;64.40;95577.38;5005367;28;20063;-75
2020/12/04 06:24:49;;;;;;;0.95;0.75;;;;;;;5.95;65.48;95576.16;4983915;28;20026;-74
2020/12/04 06:27:45;;;;;;;1.23;0.70;;;;;;;6.14;64.79;95576.81;4980661;28;20037;-75
2020/12/04 06:30:14;;;;;;;2.90;0.50;;;;;;;6.28;64.10;95581.25;4980811;28;20038;-76
2020/12/04 06:32:48;;;;;;;0.75;0.55;;;;;;;6.47;63.62;95584.47;4982355;28;20056;-76
2020/12/04 06:35:32;;;;;;;0.82;0.50;;;;;;;6.33;64.73;95584.41;4985337;28;20034;-75
2020/12/04 06:37:57;;;;;;;0.57;0.57;;;;;;;6.84;62.03;95580.59;4988555;28;20030;-76
2020/12/04 06:40:29;;;;;;;0.85;0.68;;;;;;;6.58;63.01;95576.06;4982732;28;20073;-73
2020/12/04 06:43:00;;;;;;;0.47;0.45;;;;;;;6.37;63.93;95575.56;4969197;28;20045;-75
2020/12/04 06:45:55;;;;;;;0.50;0.50;;;;;;;6.04;64.71;95578.25;4981269;28;20124;-74
2020/12/04 06:48:22;;;;;;;0.75;0.55;;;;;;;6.18;64.67;95581.84;4955951;28;20073;-76
2020/12/04 06:50:49;;;;;;;0.52;0.50;;;;;;;5.65;66.48;95583.84;4987851;28;20473;-75
2020/12/04 06:53:16;;;;;;;0.60;0.60;;;;;;;6.21;63.98;95572.16;4983920;28;20080;-77
2020/12/04 06:55:44;;;;;;;2.25;0.50;;;;;;;5.91;65.35;95584.19;4994421;28;20061;-76
2020/12/04 06:58:10;;;;;;;2.60;0.55;;;;;;;6.25;64.53;95577.97;4985398;28;20034;-75
2020/12/04 07:00:36;;;;;;;1.75;0.40;;;;;;;5.87;65.10;95583.53;5001383;28;20508;-76
2020/12/04 07:03:04;;;;;;;0.40;0.40;;;;;;;5.99;64.73;95582.03;4983523;28;20072;-76
2020/12/04 07:05:32;;;;;;;1.23;0.57;;;;;;;5.34;66.46;95586.38;4982202;28;20088;-75
2020/12/04 07:08:02;;;;;;;2.63;0.93;;;;;;;6.17;64.38;95577.59;4966564;28;20423;-75
2020/12/04 07:10:33;;;;;;;1.05;0.65;;;;;;;6.20;64.12;95580.84;4998863;28;20132;-77
2020/12/04 07:13:01;;;;;;;0.47;0.47;;;;;;;5.81;65.04;95589.00;4984889;28;20137;-75
2020/12/04 07:15:28;;;;;;;0.57;0.50;;;;;;;5.70;65.35;95592.19;4986581;28;20806;-75
2020/12/04 07:17:55;;;;;;;2.38;0.50;;;;;;;5.99;64.84;95600.16;4991149;28;20109;-77
2020/12/04 07:20:21;;;;;;;2.05;0.40;;;;;;;6.14;64.09;95599.31;4987075;28;20038;-76
2020/12/04 07:22:47;;;;;;;0.30;0.30;;;;;;;5.52;65.56;95597.50;4984394;28;20106;-76
2020/12/04 07:25:13;;;;;;;0.47;0.47;;;;;;;5.82;64.88;95592.44;4982418;28;20069;-77
2020/12/04 07:27:39;;;;;;;0.90;0.55;;;;;;;6.22;64.06;95604.91;4984475;28;20110;-77
2020/12/04 07:30:17;;;;;;;0.22;0.22;;;;;;;6.09;64.12;95596.97;4985310;28;20468;-75
2020/12/04 07:32:53;;;;;;;1.95;0.50;;;;;;;5.75;64.89;95602.31;4988737;28;20112;-77
2020/12/04 07:35:21;;;;;;;0.50;0.50;;;;;;;5.73;65.49;95593.78;5009347;28;20030;-74
2020/12/04 07:37:48;;;;;;;0.60;0.52;;;;;;;6.13;63.64;95593.31;4983339;28;20165;-76
2020/12/04 07:40:15;;;;;;;2.47;0.60;;;;;;;5.87;64.96;95588.72;4973087;28;20089;-76
2020/12/04 07:42:42;;;;;;;0.85;0.50;;;;;;;5.80;64.55;95589.94;5002952;28;20042;-77
2020/12/04 07:45:15;;;;;;;0.73;0.68;;;;;;;6.08;64.29;95589.28;4974300;28;20465;-76
2020/12/04 07:47:43;;;;;;;0.55;0.55;;;;;;;6.06;63.64;95586.78;4975119;28;20120;-76
2020/12/04 07:50:14;;;;;;;2.28;0.60;;;;;;;6.17;63.72;95583.59;4994899;28;20034;-76
2020/12/04 07:52:52;;;;;;;2.08;0.63;;;;;;;6.13;63.90;95579.53;4973415;28;20121;-77
2020/12/04 07:55:21;;;;;;;1.85;0.63;;;;;;;5.63;65.31;95584.81;4974744;28;20034;-77
2020/12/04 07:58:04;;;;;;;0.50;0.50;;;;;;;5.70;65.36;95581.00;4988195;28;20030;-76
2020/12/04 08:00:34;;;;;;;0.50;0.50;;;;;;;5.84;65.04;95580.25;4990043;28;20049;-75
2020/12/04 08:03:09;;;;;;;0.30;0.30;;;;;;;5.74;64.72;95577.31;4987924;28;20145;-76
2020/12/04 08:05:36;;;;;;;0.55;0.55;;;;;;;5.64;64.75;95582.16;5007240;28;20068;-76
2020/12/04 08:08:04;;;;;;;0.50;0.50;;;;;;;5.86;64.32;95575.81;4987324;28;20053;-76
2020/12/04 08:10:29;;;;;;;1.20;0.50;;;;;;;5.76;64.73;95575.47;4987322;28;20133;-76
2020/12/04 08:12:57;;;;;;;0.57;0.35;;;;;;;5.59;64.83;95578.97;4995389;28;20553;-75
2020/12/04 08:15:24;;;;;;;1.08;0.43;;;;;;;5.69;65.17;95592.25;4989246;28;20042;-76
2020/12/04 08:18:01;;;;;;;0.35;0.30;;;;;;;6.01;63.77;95578.44;4990776;28;20029;-75
2020/12/04 08:20:27;;;;;;;0.60;0.60;;;;;;;5.56;65.35;95580.91;4977003;28;20080;-75
2020/12/04 08:22:53;;;;;;;3.05;0.60;;;;;;;5.71;64.42;95580.91;4988381;28;20034;-74
2020/12/04 08:25:24;;;;;;;0.55;0.55;;;;;;;5.78;65.22;95586.59;4986705;28;20413;-75
2020/12/04 08:27:49;;;;;;;0.47;0.47;;;;;;;5.86;64.41;95587.00;4984631;28;20038;-76
2020/12/04 08:30:26;;;;;;;0.45;0.45;;;;;;;5.95;64.18;95583.94;4994688;28;20522;-75
2020/12/04 08:32:56;;;;;;;0.40;0.40;;;;;;;5.94;63.65;95569.34;5009427;28;20034;-76
2020/12/04 08:35:30;;;;;;;0.50;0.50;;;;;;;6.01;63.84;95577.59;4979713;28;20068;-76
2020/12/04 08:38:07;;;;;;;0.90;0.60;;;;;;;5.89;64.49;95578.28;4993137;28;20067;-77
2020/12/04 08:40:36;;;;;;;0.50;0.50;;;;;;;6.25;63.02;95572.78;4987094;28;20027;-77
2020/12/04 08:43:10;;;;;;;0.60;0.60;;;;;;;5.84;63.69;95565.53;4993282;28;20632;-75
2020/12/04 08:45:37;;;;;;;1.25;0.35;;;;;;;6.13;63.45;95570.00;4989604;28;20030;-75
2020/12/04 08:48:08;;;;;;;0.60;0.60;;;;;;;6.22;62.90;95567.78;5000445;28;20398;-76
2020/12/04 08:50:47;;;;;;;0.67;0.60;;;;;;;6.09;63.84;95559.88;5001756;28;20156;-76
2020/12/04 08:53:15;;;;;;;1.27;0.60;;;;;;;6.29;63.54;95566.50;4991948;28;20284;-76
2020/12/04 08:55:46;;;;;;;0.63;0.63;;;;;;;6.00;64.69;95555.19;4973594;28;20357;-76
2020/12/04 08:58:14;;;;;;;1.65;0.75;;;;;;;5.52;66.03;95556.06;4983058;28;20156;-76
2020/12/04 09:00:41;;;;;;;0.63;0.63;;;;;;;5.22;66.84;95541.28;4995826;28;20439;-77
2020/12/04 09:03:06;;;;;;;0.77;0.70;;;;;;;5.57;66.43;95549.72;4985167;28;20080;-76
2020/12/04 09:05:32;;;;;;;1.35;0.95;;;;;;;5.66;66.48;95541.47;4986199;28;20034;-76
2020/12/04 09:07:57;;;;;;;1.42;1.05;;;;;;;5.48;66.33;95539.03;4992882;28;20402;-76
2020/12/04 09:10:23;;;;;;;1.00;0.93;;;;;;;5.54;66.34;95541.31;4969956;28;20065;-77
2020/12/04 09:12:49;;;;;;;1.67;0.95;;;;;;;4.98;68.50;95534.81;5002015;28;20049;-78
2020/12/04 09:15:17;;;;;;;1.10;1.00;;;;;;;5.19;68.53;95538.84;4995057;28;20124;-77
2020/12/04 09:17:43;;;;;;;1.45;1.10;;;;;;;4.93;69.44;95528.19;4972420;28;20497;-77
2020/12/04 09:20:11;;;;;;;1.17;0.82;;;;;;;5.38;68.41;95535.28;4971312;28;20038;-78
2020/12/04 09:22:38;;;;;;;1.48;1.05;;;;;;;5.00;69.23;95535.53;4977246;28;20045;-77
2020/12/04 09:25:05;;;;;;;1.50;1.25;;;;;;;5.03;68.67;95530.22;4991582;28;20122;-77
2020/12/04 09:27:31;;;;;;;1.63;1.10;;;;;;;5.22;68.78;95522.34;4983773;28;20044;-76
2020/12/04 09:29:58;;;;;;;2.25;1.20;;;;;;;5.18;69.38;95531.19;4984384;28;20121;-77
2020/12/04 09:32:28;;;;;;;1.38;1.10;;;;;;;5.16;69.14;95525.25;5007509;28;20043;-77
2020/12/04 09:34:54;;;;;;;1.30;1.20;;;;;;;4.94;70.17;95528.09;4990582;28;20023;-77
2020/12/04 09:37:31;;;;;;;2.67;1.40;;;;;;;5.49;68.00;95523.44;4971484;28;20042;-76
2020/12/04 09:40:06;;;;;;;2.63;1.30;;;;;;;5.24;68.53;95512.72;4988866;28;20113;-77
2020/12/04 09:42:32;;;;;;;2.72;1.20;;;;;;;4.89;70.51;95512.00;4972329;28;20112;-76
2020/12/04 09:44:58;;;;;;;1.55;1.45;;;;;;;4.98;70.06;95511.53;4999255;28;20031;-77
2020/12/04 09:47:25;;;;;;;1.33;1.23;;;;;;;4.92;70.01;95511.84;4973106;28;20035;-77
2020/12/04 09:49:52;;;;;;;3.22;1.48;;;;;;;4.82;69.64;95503.72;4994705;28;20061;-76
2020/12/04 09:52:19;;;;;;;2.00;1.70;;;;;;;4.92;69.61;95503.25;5005578;28;20104;-77
2020/12/04 09:54:46;;;;;;;2.17;1.60;;;;;;;4.99;70.06;95499.44;4979312;28;20146;-74
2020/12/04 09:57:13;;;;;;;3.47;1.75;;;;;;;4.89;69.98;95499.09;4986902;28;20675;-75
2020/12/04 09:59:39;;;;;;;2.97;2.10;;;;;;;4.68;70.87;95500.19;4987830;28;20026;-75
2020/12/04 10:02:06;;;;;;;2.55;2.35;;;;;;;5.14;69.26;95499.44;4988615;28;20038;-78
2020/12/04 10:04:33;;;;;;;3.58;2.05;;;;;;;5.04;69.53;95498.25;4983310;28;20031;-77
2020/12/04 10:06:59;;;;;;;3.10;2.53;;;;;;;5.05;69.88;95488.75;4989784;28;20361;-75
2020/12/04 10:09:26;;;;;;;4.03;3.45;;;;;;;4.66;70.78;95497.66;4969577;28;20042;-76
2020/12/04 10:11:53;;;;;;;4.20;3.42;;;;;;;5.00;69.81;95482.97;5010026;28;20030;-76
2020/12/04 10:14:20;;;;;;;2.97;2.67;;;;;;;4.63;70.56;95484.91;4988793;28;20080;-74
2020/12/04 10:16:47;;;;;;;6.45;3.20;;;;;;;4.71;71.27;95477.59;4990032;28;20034;-77
2020/12/04 10:19:17;;;;;;;3.25;2.47;;;;;;;4.60;71.54;95471.31;4988463;28;20513;-76
2020/12/04 10:21:45;;;;;;;3.85;2.80;;;;;;;4.37;71.94;95475.88;4971494;28;20050;-78
2020/12/04 10:24:12;;;;;;;3.72;3.03;;;;;;;4.62;71.78;95477.22;4962882;28;20050;-77
2020/12/04 10:26:45;;;;;;;4.93;3.22;;;;;;;4.31;72.33;95477.97;4981250;28;20054;-76
2020/12/04 10:29:11;;;;;;;3.75;2.67;;;;;;;4.36;72.64;95475.97;4951864;28;20466;-77
2020/12/04 10:31:38;;;;;;;3.45;3.13;;;;;;;4.26;71.99;95462.69;4973374;28;20049;-76
2020/12/04 10:34:04;;;;;;;4.38;3.17;;;;;;;4.45;72.01;95469.50;4968350;28;20096;-76
2020/12/04 10:36:30;;;;;;;3.47;3.17;;;;;;;4.93;71.01;95474.72;4957828;28;20057;-76
2020/12/04 10:38:59;;;;;;;7.70;3.45;;;;;;;4.51;71.31;95469.19;4956955;28;20172;-77
2020/12/04 10:41:36;;;;;;;3.75;2.95;;;;;;;4.58;71.37;95462.78;4971008;28;20041;-76
2020/12/04 10:44:04;;;;;;;6.43;2.95;;;;;;;4.76;70.63;95465.25;4951741;28;20038;-77
2020/12/04 10:46:30;;;;;;;4.07;2.83;;;;;;;4.64;70.71;95470.22;4969363;28;20046;-77
2020/12/04 10:48:56;;;;;;;5.05;3.33;;;;;;;4.86;70.98;95467.34;4970115;28;20066;-76
2020/12/04 10:51:22;;;;;;;3.88;3.17;;;;;;;4.82;70.30;95456.34;4986688;28;20446;-78
2020/12/04 10:53:50;;;;;;;6.03;2.40;;;;;;;4.33;71.23;95461.44;4950568;28;20078;-78
2020/12/04 10:56:22;;;;;;;6.85;2.70;;;;;;;4.57;70.17;95450.78;4970067;28;20425;-77
2020/12/04 10:58:51;;;;;;;5.82;2.60;;;;;;;4.63;70.70;95437.53;4959831;28;20046;-77
2020/12/04 11:06:22;;;;;;;4.22;2.45;;;;;;;4.24;72.24;95432.66;4981036;28;20157;-79
2020/12/04 11:08:49;;;;;;;3.38;2.83;;;;;;;4.32;71.71;95421.03;4986136;28;20062;-84
2020/12/04 11:11:20;;;;;;;6.38;2.67;;;;;;;4.12;72.54;95428.13;4983584;28;20049;-77
2020/12/04 11:13:47;;;;;;;5.60;2.80;;;;;;;4.34;72.17;95426.13;4987773;28;20493;-79
2020/12/04 11:16:14;;;;;;;4.45;2.38;;;;;;;4.33;72.72;95422.69;4975333;28;20338;-79
2020/12/04 11:18:39;;;;;;;3.45;2.70;;;;;;;4.10;72.57;95422.19;4985781;28;20038;-77
2020/12/04 11:21:05;;;;;;;3.55;2.33;;;;;;;4.28;72.25;95400.59;4985684;28;20483;-78
2020/12/04 11:23:32;;;;;;;3.42;2.28;;;;;;;4.19;73.17;95411.41;4984373;28;20128;-78
2020/12/04 11:25:57;;;;;;;2.85;2.17;;;;;;;4.64;70.87;95396.13;4980724;28;20088;-78
2020/12/04 11:28:23;;;;;;;3.85;1.95;;;;;;;4.34;72.44;95401.13;4973199;28;20042;-78
2020/12/04 11:30:48;;;;;;;1.80;1.70;;;;;;;4.15;72.93;95397.81;4985472;28;20134;-78
2020/12/04 11:33:14;;;;;;;2.95;2.42;;;;;;;4.39;72.38;95398.31;4989945;28;20084;-78
2020/12/04 11:35:39;;;;;;;2.10;1.90;;;;;;;4.19;72.94;95380.41;5001046;28;20763;-78
2020/12/04 11:38:06;;;;;;;2.55;1.92;;;;;;;4.21;73.33;95401.84;4987337;28;20126;-78
2020/12/04 11:40:32;;;;;;;2.88;2.13;;;;;;;4.19;73.67;95385.56;5000006;28;20030;-77
2020/12/04 11:42:58;;;;;;;4.47;1.60;;;;;;;3.97;74.11;95393.59;4967944;28;20517;-77
2020/12/04 11:45:24;;;;;;;6.13;2.10;;;;;;;4.61;72.45;95393.69;4978409;28;20030;-78
2020/12/04 11:47:49;;;;;;;2.60;2.10;;;;;;;4.41;72.98;95382.72;4988672;28;20057;-78
2020/12/04 11:50:16;;;;;;;3.88;2.10;;;;;;;4.58;71.83;95385.25;4991504;28;20076;-78
2020/12/04 11:52:43;;;;;;;1.70;1.40;;;;;;;4.41;72.19;95385.31;4984182;28;20066;-76